createdAt,value
2018-05-14T00:01:55.754Z,18.10
2018-05-14T00:04:23.271Z,18.20
2018-05-14T00:06:51.550Z,18.00
2018-05-14T00:09:19.813Z,17.90
2018-05-14T00:11:47.350Z,17.90
2018-05-14T00:14:14.889Z,17.90
2018-05-14T00:16:42.393Z,17.90
2018-05-14T00:19:10.744Z,18.00
2018-05-14T00:21:38.245Z,17.90
2018-05-14T00:24:06.563Z,17.90
2018-05-14T00:26:34.061Z,17.90
2018-05-14T00:29:01.569Z,17.90
2018-05-14T00:31:29.069Z,17.90
2018-05-14T00:33:56.603Z,17.80
2018-05-14T00:36:24.101Z,17.70
2018-05-14T00:38:51.620Z,17.70
2018-05-14T00:41:19.122Z,17.80
2018-05-14T00:43:47.417Z,17.80
2018-05-14T00:46:15.685Z,17.80
2018-05-14T00:48:43.964Z,17.70
2018-05-14T00:51:12.238Z,17.70
2018-05-14T00:53:40.506Z,17.70
2018-05-14T00:56:08.013Z,17.60
2018-05-14T00:58:39.511Z,17.70
2018-05-14T01:01:07.028Z,17.60
2018-05-14T01:03:34.538Z,17.60
2018-05-14T01:06:02.825Z,17.50
2018-05-14T01:08:31.107Z,17.50
2018-05-14T01:10:59.378Z,17.50
2018-05-14T01:13:27.648Z,17.40
2018-05-14T01:15:55.925Z,17.40
2018-05-14T01:18:24.198Z,17.40
2018-05-14T01:20:51.713Z,17.40
2018-05-14T01:23:19.215Z,17.30
2018-05-14T01:25:47.497Z,17.30
2018-05-14T01:28:15.872Z,17.20
2018-05-14T01:30:44.044Z,17.20
2018-05-14T01:33:11.582Z,17.20
2018-05-14T01:35:39.840Z,17.20
2018-05-14T01:38:07.365Z,17.10
2018-05-14T01:40:34.903Z,17.20
2018-05-14T01:43:03.182Z,17.10
2018-05-14T01:45:31.461Z,17.10
2018-05-14T01:47:59.738Z,17.10
2018-05-14T01:50:28.013Z,17.00
2018-05-14T01:52:56.313Z,16.90
2018-05-14T01:55:23.816Z,16.90
2018-05-14T01:57:51.320Z,16.90
2018-05-14T02:00:19.612Z,16.80
2018-05-14T02:02:47.118Z,16.80
2018-05-14T02:05:14.621Z,16.90
2018-05-14T02:07:42.145Z,16.90
2018-05-14T02:10:09.662Z,16.80
2018-05-14T02:25:42.211Z,16.90
2018-05-14T02:28:09.709Z,16.50
2018-05-14T02:30:37.229Z,16.50
2018-05-14T02:33:04.730Z,16.70
2018-05-14T02:35:32.221Z,16.90
2018-05-14T02:38:00.525Z,17.10
2018-05-14T02:40:28.050Z,17.10
2018-05-14T02:42:55.566Z,17.10
2018-05-14T02:45:23.081Z,17.10
2018-05-14T02:47:51.355Z,17.20
2018-05-14T02:50:19.620Z,17.20
2018-05-14T02:52:48.246Z,17.20
2018-05-14T02:55:15.750Z,17.20
2018-05-14T02:57:43.372Z,17.20
2018-05-14T03:00:10.927Z,17.20
2018-05-14T03:02:38.446Z,17.20
2018-05-14T03:05:05.953Z,17.20
2018-05-14T03:07:33.448Z,17.10
2018-05-14T03:10:00.953Z,17.20
2018-05-14T03:12:28.444Z,17.20
2018-05-14T03:14:55.947Z,17.20
2018-05-14T03:17:24.201Z,17.10
2018-05-14T03:19:51.709Z,17.10
2018-05-14T03:22:19.341Z,17.10
2018-05-14T03:24:47.622Z,17.10
2018-05-14T03:27:15.901Z,17.20
2018-05-14T03:29:44.178Z,17.20
2018-05-14T03:32:12.442Z,17.30
2018-05-14T03:34:39.961Z,17.20
2018-05-14T03:37:08.382Z,17.20
2018-05-14T03:39:36.497Z,17.10
2018-05-14T03:42:04.022Z,17.20
2018-05-14T03:44:32.331Z,17.20
2018-05-14T03:47:00.229Z,17.20
2018-05-14T03:49:27.727Z,17.20
2018-05-14T03:51:56.069Z,17.10
2018-05-14T03:54:23.561Z,17.10
2018-05-14T03:56:51.833Z,17.10
2018-05-14T03:59:31.118Z,17.10
2018-05-14T04:02:20.962Z,17.20
2018-05-14T04:05:00.440Z,17.10
2018-05-14T04:07:27.965Z,17.10
2018-05-14T04:09:56.229Z,17.10
2018-05-14T04:12:24.049Z,17.10
2018-05-14T04:14:51.558Z,17.10
2018-05-14T04:17:19.973Z,17.10
2018-05-14T04:19:47.573Z,17.10
2018-05-14T04:22:15.083Z,17.10
2018-05-14T04:24:42.757Z,17.10
2018-05-14T04:27:10.269Z,17.20
2018-05-14T04:29:37.803Z,17.20
2018-05-14T04:32:05.293Z,17.20
2018-05-14T04:34:32.795Z,17.30
2018-05-14T04:37:00.369Z,17.30
2018-05-14T04:39:28.049Z,17.40
2018-05-14T04:41:55.548Z,17.30
2018-05-14T04:44:23.830Z,17.50
2018-05-14T04:46:51.339Z,17.40
2018-05-14T04:49:18.823Z,17.40
2018-05-14T04:51:46.361Z,17.40
2018-05-14T04:54:13.897Z,17.50
2018-05-14T04:56:41.477Z,17.50
2018-05-14T04:59:09.032Z,17.60
2018-05-14T05:01:36.625Z,17.60
2018-05-14T05:04:04.192Z,17.60
2018-05-14T05:06:32.459Z,17.70
2018-05-14T05:08:59.964Z,17.70
2018-05-14T05:11:27.586Z,17.80
2018-05-14T05:13:55.006Z,17.90
2018-05-14T05:16:22.516Z,17.90
2018-05-14T05:18:50.789Z,18.10
2018-05-14T05:21:19.056Z,18.20
2018-05-14T05:23:47.329Z,18.30
2018-05-14T05:26:14.838Z,18.30
2018-05-14T05:28:42.349Z,18.40
2018-05-14T05:31:10.961Z,18.40
2018-05-14T05:33:38.474Z,18.50
2018-05-14T05:36:05.958Z,18.50
2018-05-14T05:38:34.297Z,18.70
2018-05-14T05:41:02.050Z,18.60
2018-05-14T05:43:29.602Z,18.70
2018-05-14T05:45:57.150Z,18.70
2018-05-14T05:48:25.857Z,18.80
2018-05-14T05:50:53.343Z,18.90
2018-05-14T05:53:20.904Z,19.00
2018-05-14T05:55:48.470Z,18.80
2018-05-14T05:58:16.055Z,19.00
2018-05-14T06:00:44.329Z,18.90
2018-05-14T06:03:12.588Z,18.40
2018-05-14T06:05:40.108Z,18.30
2018-05-14T06:08:07.605Z,18.10
2018-05-14T06:10:35.147Z,17.80
2018-05-14T06:13:03.090Z,17.70
2018-05-14T06:15:30.812Z,17.70
2018-05-14T06:17:58.277Z,17.70
2018-05-14T06:20:26.596Z,18.00
2018-05-14T06:22:54.093Z,18.00
2018-05-14T06:25:21.674Z,18.20
2018-05-14T06:27:50.015Z,18.40
2018-05-14T06:30:18.212Z,18.60
2018-05-14T06:32:45.701Z,18.60
2018-05-14T06:35:13.190Z,18.90
2018-05-14T06:37:40.693Z,19.00
2018-05-14T06:40:09.007Z,19.30
2018-05-14T06:42:36.743Z,19.20
2018-05-14T06:45:05.010Z,19.50
2018-05-14T06:47:33.288Z,19.70
2018-05-14T06:50:01.567Z,19.90
2018-05-14T06:52:29.955Z,20.00
2018-05-14T06:54:58.215Z,20.20
2018-05-14T06:57:25.716Z,20.20
2018-05-14T06:59:53.237Z,20.20
2018-05-14T07:02:21.502Z,20.50
2018-05-14T07:04:49.009Z,20.50
2018-05-14T07:07:16.533Z,20.70
2018-05-14T07:09:44.813Z,21.00
2018-05-14T07:12:13.077Z,21.30
2018-05-14T07:14:40.590Z,21.30
2018-05-14T07:17:08.097Z,21.40
2018-05-14T07:19:35.719Z,21.50
2018-05-14T07:22:03.197Z,21.60
2018-05-14T07:24:30.758Z,21.60
2018-05-14T07:26:58.264Z,21.80
2018-05-14T07:29:25.798Z,21.90
2018-05-14T07:31:54.085Z,22.20
2018-05-14T07:34:22.359Z,22.30
2018-05-14T07:36:50.633Z,22.40
2018-05-14T07:39:18.901Z,22.60
2018-05-14T07:41:46.414Z,22.60
2018-05-14T07:44:13.956Z,22.80
2018-05-14T07:46:41.459Z,22.80
2018-05-14T07:49:08.977Z,22.90
2018-05-14T07:51:36.528Z,23.00
2018-05-14T07:54:04.065Z,23.10
2018-05-14T07:56:32.349Z,23.40
2018-05-14T07:59:00.966Z,23.40
2018-05-14T08:01:28.481Z,23.30
2018-05-14T08:03:56.045Z,23.50
2018-05-14T08:06:24.355Z,23.90
2018-05-14T08:08:51.845Z,23.90
2018-05-14T08:11:19.382Z,24.10
2018-05-14T08:13:46.940Z,24.30
2018-05-14T08:16:14.461Z,24.40
2018-05-14T08:18:42.724Z,24.80
2018-05-14T08:21:10.236Z,24.80
2018-05-14T08:23:37.795Z,25.00
2018-05-14T08:26:05.327Z,25.20
2018-05-14T08:28:34.424Z,25.40
2018-05-14T08:31:02.721Z,25.30
2018-05-14T08:33:30.224Z,25.30
2018-05-14T08:35:57.722Z,25.40
2018-05-14T08:38:26.005Z,26.00
2018-05-14T08:40:53.512Z,26.00
2018-05-14T08:43:21.026Z,26.20
2018-05-14T08:45:48.562Z,26.50
2018-05-14T08:48:16.857Z,26.80
2018-05-14T08:50:44.373Z,26.80
2018-05-14T08:53:11.882Z,27.10
2018-05-14T08:55:39.381Z,27.20
2018-05-14T08:58:06.894Z,27.30
2018-05-14T09:00:34.941Z,27.50
2018-05-14T09:03:03.624Z,27.90
2018-05-14T09:05:35.534Z,28.00
2018-05-14T09:08:07.320Z,28.00
2018-05-14T09:10:34.841Z,28.20
2018-05-14T09:13:02.371Z,28.20
2018-05-14T09:15:30.662Z,28.40
2018-05-14T09:17:58.938Z,28.60
2018-05-14T09:20:27.215Z,28.70
2018-05-14T09:22:54.745Z,28.70
2018-05-14T09:25:22.275Z,28.80
2018-05-14T09:27:49.766Z,29.00
2018-05-14T09:30:17.276Z,29.20
2018-05-14T09:34:30.738Z,29.30
2018-05-14T09:36:58.486Z,29.40
2018-05-14T09:39:26.083Z,29.50
2018-05-14T09:41:53.922Z,29.70
2018-05-14T09:44:21.438Z,29.70
2018-05-14T09:46:49.717Z,29.80
2018-05-14T09:49:18.278Z,29.90
2018-05-14T09:51:45.810Z,29.90
2018-05-14T09:54:13.301Z,30.00
2018-05-14T09:56:40.823Z,30.00
2018-05-14T09:59:12.229Z,30.00
2018-05-14T10:01:40.641Z,30.00
2018-05-14T10:04:08.190Z,30.00
2018-05-14T10:06:35.787Z,30.30
2018-05-14T10:09:03.313Z,30.50
2018-05-14T10:11:30.949Z,30.50
2018-05-14T10:13:58.394Z,30.50
2018-05-14T10:16:26.621Z,30.60
2018-05-14T10:18:54.241Z,30.70
2018-05-14T10:21:22.533Z,30.80
2018-05-14T10:23:50.789Z,30.80
2018-05-14T10:26:19.596Z,30.70
2018-05-14T10:28:47.163Z,30.70
2018-05-14T10:31:15.377Z,30.60
2018-05-14T10:33:43.568Z,30.60
2018-05-14T10:36:11.070Z,30.70
2018-05-14T10:38:38.591Z,30.70
2018-05-14T10:41:06.105Z,30.80
2018-05-14T10:43:33.679Z,30.90
2018-05-14T10:46:01.395Z,31.00
2018-05-14T10:48:29.657Z,30.80
2018-05-14T10:50:57.183Z,30.80
2018-05-14T10:53:24.713Z,30.90
2018-05-14T10:55:52.249Z,30.80
2018-05-14T10:58:20.515Z,30.90
2018-05-14T11:00:48.044Z,30.90
2018-05-14T11:03:15.713Z,31.00
2018-05-14T11:05:43.222Z,31.20
2018-05-14T11:08:10.738Z,31.40
2018-05-14T11:10:38.345Z,31.30
2018-05-14T11:13:05.799Z,31.20
2018-05-14T11:15:33.348Z,31.30
2018-05-14T11:18:01.638Z,31.20
2018-05-14T11:20:29.154Z,31.20
2018-05-14T11:22:56.696Z,31.30
2018-05-14T11:25:24.197Z,31.30
2018-05-14T11:27:52.501Z,31.50
2018-05-14T11:30:20.001Z,31.50
2018-05-14T11:32:47.534Z,31.50
2018-05-14T11:35:15.029Z,31.50
2018-05-14T11:37:42.544Z,31.60
2018-05-14T11:40:10.181Z,31.60
2018-05-14T11:42:39.233Z,31.70
2018-05-14T11:45:06.726Z,31.70
2018-05-14T11:47:34.998Z,31.40
2018-05-14T11:50:03.409Z,31.50
2018-05-14T11:52:31.022Z,31.50
2018-05-14T11:54:58.542Z,31.60
2018-05-14T11:57:26.040Z,31.70
2018-05-14T11:59:53.562Z,31.60
2018-05-14T12:02:21.061Z,31.70
2018-05-14T12:04:48.603Z,31.80
2018-05-14T12:07:16.102Z,31.70
2018-05-14T12:09:44.395Z,31.30
2018-05-14T12:12:11.967Z,31.30
2018-05-14T12:14:39.393Z,31.20
2018-05-14T12:17:07.737Z,31.00
2018-05-14T12:19:35.255Z,31.00
2018-05-14T12:22:02.762Z,30.90
2018-05-14T12:24:30.287Z,30.80
2018-05-14T12:26:57.785Z,30.40
2018-05-14T12:29:25.304Z,30.40
2018-05-14T12:31:52.813Z,30.40
2018-05-14T12:34:20.328Z,30.20
2018-05-14T12:36:47.857Z,30.20
2018-05-14T12:39:15.358Z,30.30
2018-05-14T12:41:42.883Z,30.60
2018-05-14T12:44:10.384Z,30.60
2018-05-14T12:46:37.901Z,30.70
2018-05-14T12:49:05.442Z,30.80
2018-05-14T12:51:33.722Z,30.90
2018-05-14T12:54:02.008Z,30.80
2018-05-14T12:56:29.521Z,30.80
2018-05-14T12:58:57.039Z,31.00
2018-05-14T13:01:24.566Z,31.00
2018-05-14T13:03:52.829Z,30.80
2018-05-14T13:06:20.857Z,30.80
2018-05-14T13:08:48.365Z,30.70
2018-05-14T13:11:15.918Z,30.70
2018-05-14T13:13:43.442Z,30.80
2018-05-14T13:16:10.954Z,30.80
2018-05-14T13:18:39.247Z,30.90
2018-05-14T13:21:07.505Z,30.90
2018-05-14T13:23:35.786Z,30.90
2018-05-14T13:26:04.054Z,31.10
2018-05-14T13:28:32.333Z,31.30
2018-05-14T13:31:01.541Z,31.40
2018-05-14T13:33:29.805Z,31.30
2018-05-14T13:35:58.093Z,30.90
2018-05-14T13:38:26.385Z,30.60
2018-05-14T13:40:53.920Z,30.50
2018-05-14T13:43:22.300Z,31.00
2018-05-14T13:45:50.585Z,31.20
2018-05-14T13:48:18.860Z,31.20
2018-05-14T13:50:47.905Z,31.40
2018-05-14T13:53:15.402Z,31.40
2018-05-14T13:55:42.973Z,31.50
2018-05-14T13:58:11.242Z,30.90
2018-05-14T14:00:39.570Z,30.70
2018-05-14T14:03:07.087Z,30.70
2018-05-14T14:05:35.495Z,31.40
2018-05-14T14:08:03.149Z,31.40
2018-05-14T14:10:30.761Z,32.20
2018-05-14T14:13:01.886Z,32.90
2018-05-14T14:15:29.452Z,32.80
2018-05-14T14:17:56.977Z,32.90
2018-05-14T14:20:24.509Z,33.20
2018-05-14T14:22:52.798Z,37.00
2018-05-14T14:25:21.130Z,38.20
2018-05-14T14:27:49.476Z,38.10
2018-05-14T14:30:16.987Z,39.20
2018-05-14T14:32:44.625Z,39.20
2018-05-14T14:35:12.207Z,38.50
2018-05-14T14:37:39.703Z,37.90
2018-05-14T14:40:07.255Z,37.00
2018-05-14T14:42:34.778Z,36.40
2018-05-14T14:45:02.291Z,35.50
2018-05-14T14:47:29.819Z,34.80
2018-05-14T14:49:58.171Z,33.70
2018-05-14T14:52:26.001Z,33.60
2018-05-14T14:54:53.516Z,33.60
2018-05-14T14:57:21.018Z,33.70
2018-05-14T14:59:48.549Z,33.60
2018-05-14T15:02:16.820Z,32.10
2018-05-14T15:04:45.103Z,31.60
2018-05-14T15:07:12.624Z,31.50
2018-05-14T15:09:40.121Z,31.30
2018-05-14T15:12:08.463Z,30.90
2018-05-14T15:14:36.714Z,30.90
2018-05-14T15:17:05.162Z,30.60
2018-05-14T15:19:33.451Z,30.10
2018-05-14T15:22:00.987Z,30.00
2018-05-14T15:24:30.153Z,29.70
2018-05-14T15:36:45.221Z,29.70
2018-05-14T16:08:37.149Z,26.50
2018-05-14T16:11:05.441Z,26.70
2018-05-14T16:13:34.054Z,27.10
2018-05-14T16:16:01.581Z,27.00
2018-05-14T16:18:29.857Z,27.10
2018-05-14T16:20:57.387Z,27.10
2018-05-14T16:23:24.900Z,27.10
2018-05-14T16:25:52.406Z,27.00
2018-05-14T16:28:19.921Z,26.90
2018-05-14T16:30:47.449Z,26.70
2018-05-14T16:33:15.746Z,26.70
2018-05-14T16:35:43.246Z,26.70
2018-05-14T16:38:11.564Z,26.60
2018-05-14T16:40:39.854Z,26.60
2018-05-14T16:43:07.370Z,26.60
2018-05-14T16:45:34.944Z,26.60
2018-05-14T16:48:02.513Z,26.60
2018-05-14T16:50:30.780Z,26.50
2018-05-14T16:52:58.288Z,26.50
2018-05-14T16:55:25.832Z,26.50
2018-05-14T16:57:53.384Z,26.50
2018-05-14T17:00:22.169Z,26.40
2018-05-14T17:02:50.446Z,26.40
2018-05-14T17:05:18.746Z,26.40
2018-05-14T17:07:46.249Z,26.40
2018-05-14T17:10:14.226Z,26.30
2018-05-14T17:12:41.726Z,26.30
2018-05-14T17:15:09.257Z,26.20
2018-05-14T17:17:37.524Z,26.10
2018-05-14T17:20:05.084Z,26.00
2018-05-14T17:22:32.618Z,26.00
2018-05-14T17:25:00.457Z,25.90
2018-05-14T17:27:27.962Z,25.70
2018-05-14T17:29:55.493Z,25.80
2018-05-14T17:32:23.050Z,25.80
2018-05-14T17:34:50.613Z,25.80
2018-05-14T17:37:18.147Z,25.80
2018-05-14T17:39:45.649Z,25.80
2018-05-14T17:42:17.150Z,25.70
2018-05-14T17:44:44.653Z,25.70
2018-05-14T17:47:12.195Z,25.70
2018-05-14T17:49:39.719Z,25.60
2018-05-14T17:52:08.064Z,25.40
2018-05-14T17:54:36.317Z,25.40
2018-05-14T17:57:03.856Z,25.40
2018-05-14T17:59:31.963Z,25.40
2018-05-14T18:01:59.464Z,25.40
2018-05-14T18:04:27.741Z,25.20
2018-05-14T18:06:56.047Z,25.00
2018-05-14T18:09:24.072Z,25.10
2018-05-14T18:11:51.587Z,25.10
2018-05-14T18:14:19.122Z,25.00
2018-05-14T18:16:46.629Z,24.90
2018-05-14T18:19:14.133Z,24.80
2018-05-14T18:21:44.460Z,24.60
2018-05-14T18:24:11.961Z,24.70
2018-05-14T18:26:45.223Z,24.70
2018-05-14T18:29:12.759Z,24.70
2018-05-14T18:31:46.670Z,24.60
2018-05-14T18:34:16.738Z,24.50
2018-05-14T18:36:44.274Z,24.50
2018-05-14T18:39:11.818Z,24.50
2018-05-14T18:41:39.296Z,24.40
2018-05-14T18:44:12.395Z,24.30
2018-05-14T18:46:39.962Z,24.30
2018-05-14T18:49:07.514Z,24.20
2018-05-14T18:51:35.056Z,24.20
2018-05-14T18:54:02.560Z,24.00
2018-05-14T18:56:30.078Z,24.00
2018-05-14T18:58:57.598Z,24.00
2018-05-14T19:01:25.144Z,23.90
2018-05-14T19:03:52.661Z,23.90
2018-05-14T19:06:20.198Z,23.80
2018-05-14T19:08:47.705Z,23.70
2018-05-14T19:11:21.842Z,23.70
2018-05-14T19:13:49.349Z,23.70
2018-05-14T19:29:22.648Z,23.60
2018-05-14T19:31:50.215Z,22.50
2018-05-14T19:34:23.443Z,22.60
2018-05-14T19:36:50.968Z,22.70
2018-05-14T19:39:24.358Z,22.80
2018-05-14T19:41:51.870Z,22.90
2018-05-14T19:44:20.157Z,22.90
2018-05-14T19:46:49.412Z,22.90
2018-05-14T19:49:16.930Z,22.80
2018-05-14T19:51:45.032Z,22.90
2018-05-14T19:54:12.559Z,22.90
2018-05-14T19:56:40.638Z,22.90
2018-05-14T19:59:08.167Z,22.80
2018-05-14T20:01:37.026Z,22.60
2018-05-14T20:04:04.551Z,22.70
2018-05-14T20:06:32.061Z,22.60
2018-05-14T20:09:00.179Z,22.60
2018-05-14T20:11:27.729Z,22.50
2018-05-14T20:13:55.258Z,22.50
2018-05-14T20:16:22.786Z,22.40
2018-05-14T20:18:50.356Z,22.40
2018-05-14T20:21:17.871Z,22.30
2018-05-14T20:23:45.409Z,22.30
2018-05-14T20:26:13.690Z,22.20
2018-05-14T20:28:41.988Z,22.10
2018-05-14T20:31:09.521Z,22.10
2018-05-14T20:33:37.883Z,22.00
2018-05-14T20:36:05.504Z,21.90
2018-05-14T20:38:33.051Z,21.90
2018-05-14T20:41:00.602Z,21.90
2018-05-14T20:43:28.187Z,22.00
2018-05-14T20:45:55.814Z,21.90
2018-05-14T20:48:24.091Z,21.90
2018-05-14T20:50:52.388Z,21.80
2018-05-14T20:53:19.908Z,21.80
2018-05-14T20:55:48.192Z,21.70
2018-05-14T20:58:16.514Z,21.70
2018-05-14T21:00:44.032Z,21.60
2018-05-14T21:03:12.334Z,21.60
2018-05-14T21:05:39.896Z,21.60
2018-05-14T21:08:07.416Z,21.60
2018-05-14T21:10:34.924Z,21.50
2018-05-14T21:13:02.434Z,21.50
2018-05-14T21:15:30.100Z,21.40
2018-05-14T21:17:58.391Z,21.30
2018-05-14T21:20:26.679Z,21.30
2018-05-14T21:22:54.179Z,21.30
2018-05-14T21:25:21.701Z,21.20
2018-05-14T21:27:49.209Z,21.20
2018-05-14T21:30:17.505Z,21.10
2018-05-14T21:32:45.010Z,21.10
2018-05-14T21:35:12.530Z,21.00
2018-05-14T21:37:40.821Z,20.90
2018-05-14T21:40:09.900Z,20.80
2018-05-14T21:42:38.170Z,20.80
2018-05-14T21:45:05.662Z,20.80
2018-05-14T21:47:33.331Z,20.80
2018-05-14T21:50:00.844Z,20.80
2018-05-14T21:52:28.373Z,20.70
2018-05-14T21:54:55.883Z,20.70
2018-05-14T21:57:24.162Z,20.70
2018-05-14T21:59:52.416Z,20.70
2018-05-14T22:02:20.017Z,20.70
2018-05-14T22:04:47.534Z,20.60
2018-05-14T22:07:15.052Z,20.60
2018-05-14T22:09:42.560Z,20.60
2018-05-14T22:12:10.179Z,20.50
2018-05-14T22:14:37.753Z,20.50
2018-05-14T22:17:05.430Z,20.40
2018-05-14T22:19:33.043Z,20.40
2018-05-14T22:22:00.673Z,20.40
2018-05-14T22:24:28.971Z,20.20
2018-05-14T22:26:56.474Z,20.20
2018-05-14T22:29:23.993Z,20.20
2018-05-14T22:31:51.497Z,20.20
2018-05-14T22:34:19.011Z,20.20
2018-05-14T22:36:46.833Z,20.20
2018-05-14T22:39:14.348Z,20.20
2018-05-14T22:41:41.844Z,20.10
2018-05-14T22:44:09.368Z,20.10
2018-05-14T22:46:36.877Z,20.00
2018-05-14T22:49:04.386Z,20.00
2018-05-14T22:51:31.894Z,20.00
2018-05-14T22:53:59.433Z,20.00
2018-05-14T22:56:27.319Z,20.00
2018-05-14T22:58:54.809Z,19.90
2018-05-14T23:01:22.324Z,19.90
2018-05-14T23:03:49.820Z,19.90
2018-05-14T23:06:18.091Z,19.80
2018-05-14T23:08:46.357Z,19.70
2018-05-14T23:11:13.910Z,19.70
2018-05-14T23:13:41.412Z,19.70
2018-05-14T23:16:08.934Z,19.60
2018-05-14T23:18:36.445Z,19.60
2018-05-14T23:21:03.954Z,19.60
2018-05-14T23:23:32.842Z,19.50
2018-05-14T23:26:00.357Z,19.40
2018-05-14T23:28:27.857Z,19.40
2018-05-14T23:30:55.360Z,19.40
2018-05-14T23:33:22.879Z,19.40
2018-05-14T23:35:50.378Z,19.30
2018-05-14T23:38:17.938Z,19.30
2018-05-14T23:40:45.530Z,19.20
2018-05-14T23:43:13.096Z,19.10
2018-05-14T23:45:40.672Z,19.10
2018-05-14T23:48:08.177Z,19.10
2018-05-14T23:50:35.673Z,19.00
2018-05-14T23:53:04.457Z,18.90
2018-05-14T23:55:31.968Z,18.80
2018-05-14T23:57:59.622Z,18.90
